createdAt,value
2022-12-24T00:01:39.864Z,10.49
2022-12-24T00:04:09.467Z,10.45
2022-12-24T00:06:40.012Z,10.46
2022-12-24T00:09:09.419Z,10.46
2022-12-24T00:11:40.300Z,10.43
2022-12-24T00:14:09.442Z,10.43
2022-12-24T00:16:39.021Z,10.41
2022-12-24T00:19:07.926Z,10.40
2022-12-24T00:21:38.417Z,10.39
2022-12-24T00:24:09.140Z,10.36
2022-12-24T00:26:39.448Z,10.35
2022-12-24T00:29:08.442Z,10.34
2022-12-24T00:31:38.646Z,10.31
2022-12-24T00:34:08.746Z,10.27
2022-12-24T00:36:38.112Z,10.21
2022-12-24T00:39:07.672Z,10.21
2022-12-24T00:41:36.620Z,10.17
2022-12-24T00:44:10.881Z,10.16
2022-12-24T00:46:43.114Z,10.13
2022-12-24T00:49:14.338Z,10.08
2022-12-24T00:51:43.737Z,10.07
2022-12-24T00:54:15.299Z,10.05
2022-12-24T00:56:45.126Z,10.02
2022-12-24T00:59:18.517Z,9.98
2022-12-24T01:01:48.621Z,9.95
2022-12-24T01:04:35.593Z,9.91
2022-12-24T01:07:05.034Z,9.84
2022-12-24T01:09:35.134Z,9.79
2022-12-24T01:12:06.335Z,9.76
2022-12-24T01:14:38.564Z,9.73
2022-12-24T01:17:08.173Z,9.69
2022-12-24T01:19:36.989Z,9.68
2022-12-24T01:22:05.984Z,9.70
2022-12-24T01:24:35.908Z,9.70
2022-12-24T01:27:05.607Z,9.71
2022-12-24T01:29:38.736Z,9.72
2022-12-24T01:32:09.441Z,9.73
2022-12-24T01:34:38.461Z,9.75
2022-12-24T01:37:07.898Z,9.76
2022-12-24T01:39:37.760Z,9.77
2022-12-24T01:42:38.070Z,9.80
2022-12-24T01:45:49.460Z,9.80
2022-12-24T01:48:29.285Z,9.84
2022-12-24T01:51:05.805Z,9.86
2022-12-24T01:53:39.677Z,9.88
2022-12-24T01:56:13.186Z,9.90
2022-12-24T01:58:50.148Z,9.91
2022-12-24T02:01:20.323Z,9.93
2022-12-24T02:03:50.045Z,9.93
2022-12-24T02:06:22.474Z,9.95
2022-12-24T02:08:53.089Z,9.97
2022-12-24T02:11:23.940Z,9.99
2022-12-24T02:13:56.554Z,9.98
2022-12-24T02:16:43.422Z,9.97
2022-12-24T02:19:53.275Z,9.99
2022-12-24T02:22:36.574Z,9.97
2022-12-24T02:25:51.368Z,9.96
2022-12-24T02:28:43.789Z,9.94
2022-12-24T02:31:22.359Z,9.93
2022-12-24T02:34:01.360Z,9.93
2022-12-24T02:36:36.610Z,9.91
2022-12-24T02:39:12.818Z,9.90
2022-12-24T02:42:06.183Z,9.87
2022-12-24T02:44:46.849Z,9.85
2022-12-24T02:47:20.947Z,9.89
2022-12-24T02:49:51.565Z,9.89
2022-12-24T02:52:36.203Z,9.91
2022-12-24T02:55:11.559Z,9.89
2022-12-24T02:58:01.506Z,9.89
2022-12-24T03:00:41.237Z,9.89
2022-12-24T03:03:37.633Z,9.90
2022-12-24T03:06:19.109Z,9.93
2022-12-24T03:08:56.423Z,9.91
2022-12-24T03:11:26.712Z,9.94
2022-12-24T03:14:01.363Z,9.93
2022-12-24T03:16:30.424Z,9.90
2022-12-24T03:19:03.047Z,9.91
2022-12-24T03:21:38.271Z,9.90
2022-12-24T03:24:10.197Z,9.89
2022-12-24T03:26:41.965Z,9.88
2022-12-24T03:29:11.776Z,9.85
2022-12-24T03:31:46.064Z,9.85
2022-12-24T03:34:17.759Z,9.84
2022-12-24T03:36:50.031Z,9.83
2022-12-24T03:39:19.017Z,9.81
2022-12-24T03:41:48.838Z,9.81
2022-12-24T03:44:18.385Z,9.81
2022-12-24T03:46:49.991Z,9.76
2022-12-24T03:49:20.117Z,9.75
2022-12-24T03:51:50.171Z,9.70
2022-12-24T03:54:20.602Z,9.69
2022-12-24T03:56:50.660Z,9.66
2022-12-24T03:59:19.690Z,9.61
2022-12-24T04:01:51.118Z,9.57
2022-12-24T04:04:22.412Z,9.56
2022-12-24T04:06:52.337Z,9.50
2022-12-24T04:09:23.153Z,9.47
2022-12-24T04:11:52.821Z,9.45
2022-12-24T04:14:22.391Z,9.46
2022-12-24T04:16:51.227Z,9.43
2022-12-24T04:19:22.704Z,9.42
2022-12-24T04:21:52.266Z,9.44
2022-12-24T04:24:22.889Z,9.43
2022-12-24T04:26:52.888Z,9.43
2022-12-24T04:29:22.954Z,9.43
2022-12-24T04:31:52.583Z,9.43
2022-12-24T04:34:23.020Z,9.44
2022-12-24T04:36:51.986Z,9.43
2022-12-24T04:39:21.611Z,9.44
2022-12-24T04:41:51.011Z,9.41
2022-12-24T04:44:20.950Z,9.39
2022-12-24T04:46:50.820Z,9.39
2022-12-24T04:49:21.521Z,9.38
2022-12-24T04:51:52.025Z,9.35
2022-12-24T04:54:22.042Z,9.29
2022-12-24T04:56:52.194Z,9.30
2022-12-24T04:59:23.280Z,9.26
2022-12-24T05:01:53.405Z,9.28
2022-12-24T05:04:24.873Z,9.26
2022-12-24T05:06:54.791Z,9.27
2022-12-24T05:09:25.246Z,9.26
2022-12-24T05:11:54.977Z,9.27
2022-12-24T05:14:24.823Z,9.22
2022-12-24T05:16:54.925Z,9.24
2022-12-24T05:19:25.858Z,9.17
2022-12-24T05:22:09.802Z,9.21
2022-12-24T05:24:56.583Z,9.19
2022-12-24T05:27:27.177Z,9.12
2022-12-24T05:29:56.746Z,9.13
2022-12-24T05:32:27.311Z,9.10
2022-12-24T05:34:59.087Z,9.08
2022-12-24T05:37:30.043Z,9.06
2022-12-24T05:39:58.403Z,9.01
2022-12-24T05:42:29.412Z,9.02
2022-12-24T05:45:00.053Z,9.04
2022-12-24T05:47:30.007Z,9.05
2022-12-24T05:50:01.900Z,9.04
2022-12-24T05:52:31.392Z,9.00
2022-12-24T05:55:00.754Z,9.01
2022-12-24T05:57:30.656Z,9.03
2022-12-24T06:00:00.537Z,9.08
2022-12-24T06:02:31.034Z,9.06
2022-12-24T06:05:02.073Z,9.04
2022-12-24T06:07:32.315Z,9.04
2022-12-24T06:10:02.299Z,9.05
2022-12-24T06:12:32.221Z,9.12
2022-12-24T06:15:02.322Z,9.15
2022-12-24T06:17:32.757Z,9.17
2022-12-24T06:20:04.017Z,9.21
2022-12-24T06:22:32.771Z,9.21
2022-12-24T06:25:03.940Z,9.23
2022-12-24T06:27:34.378Z,9.26
2022-12-24T06:30:05.369Z,9.27
2022-12-24T06:32:35.825Z,9.30
2022-12-24T06:35:09.370Z,9.32
2022-12-24T06:37:38.647Z,9.33
2022-12-24T06:40:10.593Z,9.37
2022-12-24T06:42:39.943Z,9.37
2022-12-24T06:45:13.274Z,9.40
2022-12-24T06:47:43.676Z,9.41
2022-12-24T06:50:13.722Z,9.44
2022-12-24T06:52:43.123Z,9.45
2022-12-24T06:55:13.500Z,9.49
2022-12-24T06:57:43.549Z,9.49
2022-12-24T07:00:15.327Z,9.51
2022-12-24T07:02:46.030Z,9.51
2022-12-24T07:05:17.470Z,9.55
2022-12-24T07:07:47.082Z,9.57
2022-12-24T07:10:19.165Z,9.55
2022-12-24T07:12:47.973Z,9.59
2022-12-24T07:15:19.173Z,9.60
2022-12-24T07:17:49.370Z,9.62
2022-12-24T07:20:19.270Z,9.61
2022-12-24T07:22:50.271Z,9.62
2022-12-24T07:25:19.443Z,9.61
2022-12-24T07:27:49.872Z,9.66
2022-12-24T07:30:21.136Z,9.70
2022-12-24T07:32:50.210Z,9.71
2022-12-24T07:35:21.671Z,9.70
2022-12-24T07:37:52.206Z,9.72
2022-12-24T07:40:21.802Z,9.74
2022-12-24T07:42:52.316Z,9.75
2022-12-24T07:45:22.936Z,9.75
2022-12-24T07:47:52.353Z,9.76
2022-12-24T07:50:22.971Z,9.72
2022-12-24T07:52:53.984Z,9.70
2022-12-24T07:55:23.499Z,9.73
2022-12-24T07:57:53.015Z,9.73
2022-12-24T08:00:22.770Z,9.72
2022-12-24T08:02:51.777Z,9.72
2022-12-24T08:05:22.805Z,9.72
2022-12-24T08:07:52.239Z,9.76
2022-12-24T08:10:21.281Z,9.76
2022-12-24T08:12:50.276Z,9.75
2022-12-24T08:15:19.603Z,9.78
2022-12-24T08:17:49.520Z,9.79
2022-12-24T08:20:19.055Z,9.78
2022-12-24T08:22:50.502Z,9.78
2022-12-24T08:25:21.027Z,9.79
2022-12-24T08:27:50.236Z,9.77
2022-12-24T08:30:21.552Z,9.77
2022-12-24T08:32:50.343Z,9.75
2022-12-24T08:35:20.117Z,9.75
2022-12-24T08:37:51.515Z,9.78
2022-12-24T08:40:21.591Z,9.78
2022-12-24T08:42:51.277Z,9.82
2022-12-24T08:45:21.088Z,9.84
2022-12-24T08:47:49.984Z,9.86
2022-12-24T08:50:20.150Z,9.87
2022-12-24T08:52:52.087Z,9.90
2022-12-24T08:55:22.128Z,9.94
2022-12-24T08:57:51.941Z,9.96
2022-12-24T09:00:22.640Z,9.98
2022-12-24T09:02:53.127Z,10.00
2022-12-24T09:05:23.334Z,10.02
2022-12-24T09:07:54.748Z,10.06
2022-12-24T09:10:25.633Z,10.06
2022-12-24T09:12:55.208Z,10.09
2022-12-24T09:15:25.326Z,10.11
2022-12-24T09:17:54.846Z,10.13
2022-12-24T09:20:24.792Z,10.14
2022-12-24T09:22:55.731Z,10.17
2022-12-24T09:25:24.677Z,10.16
2022-12-24T09:27:54.032Z,10.19
2022-12-24T09:30:24.070Z,10.23
2022-12-24T09:32:54.738Z,10.27
2022-12-24T09:35:25.375Z,10.27
2022-12-24T09:38:03.536Z,10.31
2022-12-24T09:40:41.020Z,10.33
2022-12-24T09:43:19.306Z,10.40
2022-12-24T09:46:04.307Z,10.42
2022-12-24T09:48:38.364Z,10.45
2022-12-24T09:51:11.629Z,10.48
2022-12-24T09:53:51.518Z,10.54
2022-12-24T09:56:25.689Z,10.50
2022-12-24T09:59:01.099Z,10.54
2022-12-24T10:01:33.652Z,10.56
2022-12-24T10:04:08.650Z,10.56
2022-12-24T10:06:51.835Z,10.54
2022-12-24T10:09:39.134Z,10.54
2022-12-24T10:12:19.715Z,10.55
2022-12-24T10:15:10.613Z,10.54
2022-12-24T10:18:02.956Z,10.56
2022-12-24T10:20:46.639Z,10.52
2022-12-24T10:23:30.262Z,10.54
2022-12-24T10:26:13.799Z,10.54
2022-12-24T10:28:50.171Z,10.54
2022-12-24T10:31:25.271Z,10.55
2022-12-24T10:34:02.464Z,10.56
2022-12-24T10:36:34.568Z,10.56
2022-12-24T10:39:04.870Z,10.57
2022-12-24T10:41:38.599Z,10.55
2022-12-24T10:44:08.500Z,10.57
2022-12-24T10:46:41.278Z,10.56
2022-12-24T10:49:19.915Z,10.57
2022-12-24T10:51:55.311Z,10.55
2022-12-24T10:54:27.849Z,10.58
2022-12-24T10:57:02.716Z,10.57
2022-12-24T10:59:44.034Z,10.54
2022-12-24T11:02:31.287Z,10.56
2022-12-24T11:05:03.606Z,10.57
2022-12-24T11:07:34.901Z,10.58
2022-12-24T11:10:07.879Z,10.59
2022-12-24T11:13:05.915Z,10.59
2022-12-24T11:15:37.719Z,10.64
2022-12-24T11:18:15.924Z,10.65
2022-12-24T11:20:54.371Z,10.67
2022-12-24T11:23:25.477Z,10.65
2022-12-24T11:25:55.589Z,10.68
2022-12-24T11:28:28.681Z,10.71
2022-12-24T11:31:03.150Z,10.72
2022-12-24T11:33:33.633Z,10.71
2022-12-24T11:36:08.415Z,10.71
2022-12-24T11:38:38.119Z,10.74
2022-12-24T11:41:13.104Z,10.76
2022-12-24T11:43:49.838Z,10.77
2022-12-24T11:46:39.188Z,10.80
2022-12-24T11:49:28.987Z,10.82
2022-12-24T11:52:25.979Z,10.82
2022-12-24T11:55:19.605Z,10.85
2022-12-24T11:58:00.425Z,10.85
2022-12-24T12:00:32.425Z,10.85
2022-12-24T12:03:06.762Z,10.90
2022-12-24T12:05:37.599Z,10.90
2022-12-24T12:08:21.449Z,10.93
2022-12-24T12:10:54.924Z,10.92
2022-12-24T12:13:33.923Z,10.93
2022-12-24T12:16:18.186Z,10.93
2022-12-24T12:18:57.428Z,10.93
2022-12-24T12:21:34.381Z,10.94
2022-12-24T12:24:14.267Z,10.95
2022-12-24T12:26:47.013Z,10.95
2022-12-24T12:29:30.144Z,10.95
2022-12-24T12:32:08.939Z,10.94
2022-12-24T12:34:45.341Z,10.88
2022-12-24T12:37:23.450Z,10.89
2022-12-24T12:39:52.750Z,10.89
2022-12-24T12:42:33.400Z,10.88
2022-12-24T12:45:37.651Z,10.88
2022-12-24T12:48:45.219Z,10.88
2022-12-24T12:51:24.103Z,10.87
2022-12-24T12:54:33.791Z,10.87
2022-12-24T12:57:17.235Z,10.85
2022-12-24T12:59:55.486Z,10.83
2022-12-24T13:03:21.993Z,10.86
2022-12-24T13:06:35.198Z,10.89
2022-12-24T13:09:51.414Z,10.86
2022-12-24T13:12:50.541Z,10.89
2022-12-24T13:15:58.414Z,10.89
2022-12-24T13:19:10.422Z,10.89
2022-12-24T13:21:46.207Z,10.88
2022-12-24T13:24:23.147Z,10.82
2022-12-24T13:27:09.521Z,10.86
2022-12-24T13:29:55.006Z,10.87
2022-12-24T13:32:57.981Z,10.83
2022-12-24T13:36:03.245Z,10.81
2022-12-24T13:38:42.746Z,10.78
2022-12-24T13:41:58.575Z,10.77
2022-12-24T13:44:33.755Z,10.77
2022-12-24T13:47:31.721Z,10.74
2022-12-24T13:50:23.912Z,10.68
2022-12-24T13:52:55.561Z,10.67
2022-12-24T13:55:27.245Z,10.65
2022-12-24T13:58:00.941Z,10.65
2022-12-24T14:00:43.971Z,10.64
2022-12-24T14:03:29.145Z,10.58
2022-12-24T14:06:02.887Z,10.54
2022-12-24T14:08:43.789Z,10.47
2022-12-24T14:11:19.663Z,10.40
2022-12-24T14:14:28.795Z,10.39
2022-12-24T14:17:02.000Z,10.33
2022-12-24T14:19:44.180Z,10.32
2022-12-24T14:22:30.540Z,10.29
2022-12-24T14:25:04.307Z,10.26
2022-12-24T14:27:46.100Z,10.28
2022-12-24T14:30:23.780Z,10.31
2022-12-24T14:32:54.677Z,10.31
2022-12-24T14:35:27.686Z,10.32
2022-12-24T14:38:03.477Z,10.32
2022-12-24T14:40:35.357Z,10.31
2022-12-24T14:43:22.257Z,10.32
2022-12-24T14:46:04.767Z,10.32
2022-12-24T14:48:46.630Z,10.31
2022-12-24T14:51:28.422Z,10.30
2022-12-24T14:54:24.466Z,10.28
2022-12-24T14:57:23.493Z,10.28
2022-12-24T14:59:56.479Z,10.27
2022-12-24T15:02:47.290Z,10.24
2022-12-24T15:05:20.673Z,10.22
2022-12-24T15:07:57.368Z,10.19
2022-12-24T15:10:32.457Z,10.09
2022-12-24T15:13:07.991Z,10.14
2022-12-24T15:15:39.768Z,10.09
2022-12-24T15:18:18.441Z,10.09
2022-12-24T15:20:56.149Z,10.09
2022-12-24T15:23:34.172Z,10.08
2022-12-24T15:26:17.673Z,10.05
2022-12-24T15:28:47.591Z,10.07
2022-12-24T15:31:21.766Z,10.05
2022-12-24T15:33:52.354Z,10.04
2022-12-24T15:36:31.431Z,10.00
2022-12-24T15:39:05.000Z,10.03
2022-12-24T15:42:00.617Z,10.01
2022-12-24T15:44:36.662Z,10.01
2022-12-24T15:47:17.185Z,9.99
2022-12-24T15:49:54.236Z,10.02
2022-12-24T15:52:26.939Z,10.01
2022-12-24T15:54:58.466Z,9.96
2022-12-24T15:57:32.773Z,9.96
2022-12-24T16:00:03.682Z,9.97
2022-12-24T16:02:42.219Z,9.94
2022-12-24T16:05:38.110Z,9.96
2022-12-24T16:08:24.524Z,9.93
2022-12-24T16:11:10.440Z,9.91
2022-12-24T16:13:44.340Z,9.92
2022-12-24T16:16:17.891Z,9.92
2022-12-24T16:18:57.522Z,9.93
2022-12-24T16:21:32.316Z,9.92
2022-12-24T16:24:15.532Z,9.90
2022-12-24T16:26:45.347Z,9.87
2022-12-24T16:29:15.513Z,9.84
2022-12-24T16:31:51.245Z,9.82
2022-12-24T16:34:26.503Z,9.84
2022-12-24T16:36:57.649Z,9.83
2022-12-24T16:39:31.653Z,9.82
2022-12-24T16:42:20.913Z,9.81
2022-12-24T16:44:50.737Z,9.79
2022-12-24T16:47:24.168Z,9.80
2022-12-24T16:49:55.194Z,9.81
2022-12-24T16:52:28.635Z,9.79
2022-12-24T16:54:58.745Z,9.81
2022-12-24T16:57:28.802Z,9.80
2022-12-24T16:59:58.185Z,9.79
2022-12-24T17:02:28.967Z,9.78
2022-12-24T17:05:01.525Z,9.74
2022-12-24T17:07:30.509Z,9.74
2022-12-24T17:10:00.700Z,9.74
2022-12-24T17:12:30.901Z,9.73
2022-12-24T17:14:59.879Z,9.73
2022-12-24T17:17:31.234Z,9.72
2022-12-24T17:20:01.973Z,9.71
2022-12-24T17:22:32.987Z,9.72
2022-12-24T17:25:01.801Z,9.70
2022-12-24T17:27:31.295Z,9.68
2022-12-24T17:30:01.346Z,9.66
2022-12-24T17:32:30.688Z,9.63
2022-12-24T17:35:02.995Z,9.64
2022-12-24T17:37:33.019Z,9.63
2022-12-24T17:40:01.942Z,9.60
2022-12-24T17:42:30.991Z,9.60
2022-12-24T17:45:00.534Z,9.59
2022-12-24T17:47:30.036Z,9.60
2022-12-24T17:50:01.583Z,9.58
2022-12-24T17:52:31.061Z,9.59
2022-12-24T17:55:00.703Z,9.61
2022-12-24T17:57:31.022Z,9.59
2022-12-24T18:00:00.047Z,9.63
2022-12-24T18:02:28.668Z,9.61
2022-12-24T18:04:57.618Z,9.63
2022-12-24T18:07:28.071Z,9.61
2022-12-24T18:09:57.528Z,9.60
2022-12-24T18:12:26.102Z,9.61
2022-12-24T18:14:55.107Z,9.63
2022-12-24T18:17:24.189Z,9.62
2022-12-24T18:19:53.353Z,9.64
2022-12-24T18:22:24.000Z,9.63
2022-12-24T18:24:55.810Z,9.61
2022-12-24T18:27:25.068Z,9.61
2022-12-24T18:29:54.092Z,9.60
2022-12-24T18:32:23.278Z,9.59
2022-12-24T18:34:53.817Z,9.58
2022-12-24T18:37:23.319Z,9.58
2022-12-24T18:39:54.672Z,9.59
2022-12-24T18:42:24.117Z,9.58
2022-12-24T18:44:53.461Z,9.59
2022-12-24T18:47:23.722Z,9.58
2022-12-24T18:49:52.913Z,9.58
2022-12-24T18:52:23.430Z,9.58
2022-12-24T18:54:54.215Z,9.58
2022-12-24T18:57:23.099Z,9.57
2022-12-24T18:59:53.216Z,9.58
2022-12-24T19:02:24.596Z,9.59
2022-12-24T19:04:53.704Z,9.57
2022-12-24T19:07:22.890Z,9.57
2022-12-24T19:09:52.029Z,9.55
2022-12-24T19:12:23.470Z,9.56
2022-12-24T19:14:53.096Z,9.58
2022-12-24T19:17:23.220Z,9.56
2022-12-24T19:19:53.038Z,9.56
2022-12-24T19:22:23.184Z,9.55
2022-12-24T19:24:53.170Z,9.59
2022-12-24T19:27:24.040Z,9.59
2022-12-24T19:29:53.018Z,9.56
2022-12-24T19:32:23.629Z,9.55
2022-12-24T19:34:52.682Z,9.56
2022-12-24T19:37:22.787Z,9.56
2022-12-24T19:39:51.769Z,9.56
2022-12-24T19:42:23.143Z,9.49
2022-12-24T19:44:53.159Z,9.49
2022-12-24T19:47:23.242Z,9.50
2022-12-24T19:49:52.163Z,9.50
2022-12-24T19:52:22.435Z,9.51
2022-12-24T19:54:52.253Z,9.50
2022-12-24T19:57:23.492Z,9.49
2022-12-24T19:59:53.501Z,9.50
2022-12-24T20:02:23.842Z,9.51
2022-12-24T20:04:53.219Z,9.50
2022-12-24T20:07:22.701Z,9.50
2022-12-24T20:09:52.848Z,9.47
2022-12-24T20:12:24.079Z,9.43
2022-12-24T20:14:58.245Z,9.44
2022-12-24T20:17:28.870Z,9.46
2022-12-24T20:19:59.707Z,9.43
2022-12-24T20:22:30.242Z,9.45
2022-12-24T20:24:59.760Z,9.44
2022-12-24T20:27:30.592Z,9.41
2022-12-24T20:30:00.656Z,9.40
2022-12-24T20:32:30.111Z,9.42
2022-12-24T20:35:00.899Z,9.41
2022-12-24T20:37:30.276Z,9.42
2022-12-24T20:39:59.787Z,9.43
2022-12-24T20:42:30.635Z,9.40
2022-12-24T20:45:01.470Z,9.42
2022-12-24T20:47:30.535Z,9.44
2022-12-24T20:49:59.839Z,9.44
2022-12-24T20:52:29.308Z,9.43
2022-12-24T20:54:59.042Z,9.42
2022-12-24T20:57:35.892Z,9.42
2022-12-24T21:00:09.356Z,9.39
2022-12-24T21:02:39.408Z,9.37
2022-12-24T21:05:10.724Z,9.39
2022-12-24T21:07:41.261Z,9.38
2022-12-24T21:10:13.732Z,9.33
2022-12-24T21:12:49.875Z,9.35
2022-12-24T21:15:21.603Z,9.37
2022-12-24T21:17:51.094Z,9.39
2022-12-24T21:20:21.716Z,9.34
2022-12-24T21:22:53.466Z,9.38
2022-12-24T21:25:26.944Z,9.38
2022-12-24T21:27:58.197Z,9.36
2022-12-24T21:30:28.856Z,9.38
2022-12-24T21:32:59.282Z,9.40
2022-12-24T21:35:28.946Z,9.40
2022-12-24T21:37:58.827Z,9.41
2022-12-24T21:40:28.627Z,9.40
2022-12-24T21:43:01.369Z,9.40
2022-12-24T21:45:30.666Z,9.36
2022-12-24T21:48:20.430Z,9.36
2022-12-24T21:50:57.235Z,9.37
2022-12-24T21:53:44.450Z,9.35
2022-12-24T21:56:13.667Z,9.38
2022-12-24T21:58:44.617Z,9.37
2022-12-24T22:01:14.866Z,9.37
2022-12-24T22:03:44.129Z,9.36
2022-12-24T22:06:34.446Z,9.38
2022-12-24T22:09:20.543Z,9.39
2022-12-24T22:11:54.164Z,9.39
2022-12-24T22:14:25.899Z,9.40
2022-12-24T22:16:55.557Z,9.40
2022-12-24T22:19:25.776Z,9.42
2022-12-24T22:21:55.798Z,9.42
2022-12-24T22:24:26.891Z,9.43
2022-12-24T22:26:56.101Z,9.44
2022-12-24T22:29:27.221Z,9.43
2022-12-24T22:31:56.260Z,9.40
2022-12-24T22:34:25.990Z,9.40
2022-12-24T22:36:55.151Z,9.42
2022-12-24T22:39:25.204Z,9.41
2022-12-24T22:41:54.423Z,9.43
2022-12-24T22:44:26.043Z,9.44
2022-12-24T22:46:56.595Z,9.46
2022-12-24T22:49:25.763Z,9.47
2022-12-24T22:51:57.483Z,9.47
2022-12-24T22:54:26.823Z,9.45
2022-12-24T22:56:56.306Z,9.44
2022-12-24T22:59:27.909Z,9.44
2022-12-24T23:01:57.706Z,9.44
2022-12-24T23:04:28.430Z,9.41
2022-12-24T23:06:58.055Z,9.44
2022-12-24T23:09:27.051Z,9.41
2022-12-24T23:11:57.129Z,9.45
2022-12-24T23:14:45.607Z,9.44
2022-12-24T23:17:15.320Z,9.46
2022-12-24T23:19:45.242Z,9.46
2022-12-24T23:22:15.003Z,9.43
2022-12-24T23:24:44.555Z,9.43
2022-12-24T23:27:14.758Z,9.42
2022-12-24T23:29:45.513Z,9.46
2022-12-24T23:32:14.957Z,9.46
2022-12-24T23:34:44.842Z,9.48
2022-12-24T23:37:13.287Z,9.50
2022-12-24T23:39:43.411Z,9.52
2022-12-24T23:42:12.926Z,9.53
2022-12-24T23:44:41.992Z,9.55
2022-12-24T23:47:13.014Z,9.56
2022-12-24T23:49:42.671Z,9.56
2022-12-24T23:52:13.660Z,9.57
2022-12-24T23:54:43.930Z,9.58
2022-12-24T23:57:13.309Z,9.58
2022-12-24T23:59:42.944Z,9.61
